Time;durP1;ratioP1;P1;durP2;ratioP2;P2;SDS_P1;SDS_P2;PMS_P1;PMS_P2;Temp;Humidity;BMP_temperature;BMP_pressure;BME280_temperature;BME280_humidity;BME280_pressure;Samples;Min_cycle;Max_cycle;Signal;HPM_P1;HPM_P2
2022/11/16 00:01:24;;;;;;;9.98;8.43;;;11.40;99.90;;;;;;5057216;28;20490;-81
2022/11/16 00:03:51;;;;;;;11.52;8.35;;;10.80;99.90;;;;;;5050380;28;20037;-81
2022/11/16 00:06:18;;;;;;;10.98;8.45;;;11.10;99.90;;;;;;5017626;28;20053;-80
2022/11/16 00:09:32;;;;;;;12.10;8.50;;;10.80;99.90;;;;;;5020815;28;20148;-80
2022/11/16 00:11:39;;;;;;;11.45;9.10;;;10.80;99.90;;;;;;5023994;28;20053;-81
2022/11/16 00:14:05;;;;;;;12.90;9.20;;;11.50;99.90;;;;;;5034389;28;20120;-80
2022/11/16 00:16:31;;;;;;;12.35;9.57;;;10.90;99.90;;;;;;5026731;28;20095;-80
2022/11/16 00:19:00;;;;;;;12.95;9.30;;;11.60;99.90;;;;;;5051996;28;20049;-80
2022/11/16 00:21:26;;;;;;;14.52;10.30;;;10.80;99.90;;;;;;5035455;28;20394;-80
2022/11/16 00:23:52;;;;;;;13.30;10.15;;;10.80;99.90;;;;;;5035808;28;20124;-80
2022/11/16 00:26:19;;;;;;;12.82;10.50;;;10.80;99.90;;;;;;5018035;28;20103;-80
2022/11/16 00:28:44;;;;;;;13.57;10.85;;;10.80;99.90;;;;;;5035784;28;20045;-81
2022/11/16 00:31:14;;;;;;;14.68;11.18;;;12.10;99.90;;;;;;5035781;28;20033;-80
2022/11/16 00:33:40;;;;;;;14.43;10.95;;;11.90;99.90;;;;;;5017925;28;20453;-80
2022/11/16 00:36:09;;;;;;;14.90;11.60;;;10.80;99.90;;;;;;5035669;28;20037;-81
2022/11/16 00:38:35;;;;;;;15.30;11.23;;;10.80;99.90;;;;;;5035729;28;20060;-80
2022/11/16 00:41:01;;;;;;;15.73;11.30;;;10.80;99.90;;;;;;5017793;28;20033;-80
2022/11/16 00:43:26;;;;;;;14.50;11.63;;;10.70;99.90;;;;;;5035423;28;20053;-80
2022/11/16 00:45:52;;;;;;;13.95;10.88;;;10.80;99.90;;;;;;5035558;28;20530;-80
2022/11/16 00:48:18;;;;;;;14.95;10.88;;;10.80;99.90;;;;;;5035166;28;20228;-80
2022/11/16 00:50:45;;;;;;;13.85;10.20;;;12.20;99.90;;;;;;5035652;28;20072;-81
2022/11/16 00:53:16;;;;;;;14.95;11.30;;;11.00;99.90;;;;;;5031952;28;20056;-80
2022/11/16 00:55:44;;;;;;;14.70;10.75;;;10.80;99.90;;;;;;5035594;28;20047;-80
2022/11/16 00:58:10;;;;;;;15.40;11.30;;;12.10;99.90;;;;;;5036409;28;20049;-80
2022/11/16 01:00:36;;;;;;;14.15;10.48;;;10.80;99.90;;;;;;5031201;28;20049;-81
2022/11/16 01:03:02;;;;;;;16.55;10.60;;;11.70;99.90;;;;;;5034848;28;20473;-80
2022/11/16 01:05:28;;;;;;;15.77;11.55;;;10.90;99.90;;;;;;5049649;28;20381;-80
2022/11/16 01:07:54;;;;;;;16.20;11.52;;;11.60;99.90;;;;;;5050418;28;20033;-80
2022/11/16 01:10:22;;;;;;;13.90;11.50;;;11.60;99.90;;;;;;5047145;28;20475;-80
2022/11/16 01:12:49;;;;;;;14.90;11.50;;;11.20;99.90;;;;;;5043807;28;20041;-81
2022/11/16 01:15:17;;;;;;;15.43;11.45;;;10.80;99.90;;;;;;5041838;28;20120;-81
2022/11/16 01:17:43;;;;;;;14.18;10.50;;;10.80;99.90;;;;;;5049000;28;20049;-80
2022/11/16 01:20:16;;;;;;;16.10;11.38;;;10.80;99.90;;;;;;5033152;28;20115;-80
2022/11/16 01:22:42;;;;;;;14.27;11.43;;;11.70;99.90;;;;;;5036272;28;20750;-80
2022/11/16 01:25:08;;;;;;;16.25;10.98;;;10.90;99.90;;;;;;5050789;28;20067;-80
2022/11/16 01:27:34;;;;;;;15.40;11.50;;;10.80;99.90;;;;;;5050747;28;20094;-80
2022/11/16 01:30:00;;;;;;;15.68;11.35;;;11.00;99.90;;;;;;5034633;28;20081;-80
2022/11/16 01:32:26;;;;;;;14.57;10.88;;;10.70;99.90;;;;;;5032750;28;20088;-81
2022/11/16 01:34:51;;;;;;;17.00;11.65;;;11.50;99.90;;;;;;5031597;28;20046;-80
2022/11/16 01:37:17;;;;;;;17.48;11.68;;;10.80;99.90;;;;;;5031765;28;20037;-81
2022/11/16 01:39:43;;;;;;;13.98;10.98;;;10.80;99.90;;;;;;5038198;28;20076;-80
2022/11/16 01:42:20;;;;;;;14.68;10.40;;;10.80;99.90;;;;;;5054598;28;20060;-80
2022/11/16 01:44:46;;;;;;;15.68;10.93;;;10.80;99.90;;;;;;5053105;28;20049;-80
2022/11/16 01:47:14;;;;;;;14.63;10.57;;;11.10;99.90;;;;;;5054379;28;20393;-80
2022/11/16 01:49:44;;;;;;;14.65;10.25;;;11.60;99.90;;;;;;5053011;28;20045;-80
2022/11/16 01:52:15;;;;;;;13.23;10.43;;;11.40;99.90;;;;;;5054393;28;20040;-81
2022/11/16 01:54:44;;;;;;;11.98;9.55;;;10.90;99.90;;;;;;5052506;28;20041;-81
2022/11/16 01:57:14;;;;;;;15.75;9.93;;;10.80;99.90;;;;;;5042032;28;20044;-80
2022/11/16 01:59:42;;;;;;;15.75;10.40;;;10.90;99.90;;;;;;5035864;28;20045;-80
2022/11/16 02:02:07;;;;;;;13.77;9.95;;;11.40;99.90;;;;;;5048320;28;20084;-80
2022/11/16 02:04:33;;;;;;;13.45;10.15;;;10.90;99.90;;;;;;5052182;28;20149;-80
2022/11/16 02:09:52;;;;;;;14.57;10.20;;;11.40;99.90;;;;;;5032251;28;20037;-80
2022/11/16 02:10:48;;;;;;;13.65;9.52;;;10.80;99.90;;;;;;5043028;28;20103;-80
2022/11/16 02:13:41;;;;;;;13.75;9.60;;;10.80;99.90;;;;;;5044085;28;20095;-80
2022/11/16 02:16:13;;;;;;;15.02;10.07;;;10.80;99.90;;;;;;5015130;28;20122;-80
2022/11/16 02:19:09;;;;;;;14.93;10.63;;;10.80;99.90;;;;;;5043536;28;20509;-81
2022/11/16 02:21:48;;;;;;;13.07;10.07;;;11.10;99.90;;;;;;5015702;28;20068;-80
2022/11/16 02:24:33;;;;;;;14.50;9.80;;;10.80;99.90;;;;;;5051828;28;20116;-81
2022/11/16 02:27:30;;;;;;;14.35;9.35;;;10.80;99.90;;;;;;5035642;28;20152;-80
2022/11/16 02:29:56;;;;;;;13.10;9.30;;;10.90;99.90;;;;;;5053399;28;20049;-80
2022/11/16 02:32:40;;;;;;;14.38;10.35;;;11.20;99.90;;;;;;5053609;28;20071;-80
2022/11/16 02:35:09;;;;;;;14.00;9.80;;;11.70;99.90;;;;;;5010975;28;20137;-80
2022/11/16 02:37:38;;;;;;;15.05;9.57;;;10.90;99.90;;;;;;5032464;28;20044;-80
2022/11/16 02:40:09;;;;;;;12.63;9.27;;;10.90;99.90;;;;;;5016103;28;20111;-80
2022/11/16 02:42:52;;;;;;;12.27;8.38;;;10.90;99.90;;;;;;5015666;28;20040;-81
2022/11/16 02:45:24;;;;;;;13.55;9.52;;;10.90;99.90;;;;;;5015642;28;20056;-80
2022/11/16 02:47:53;;;;;;;13.07;9.18;;;10.90;99.90;;;;;;5015520;28;20108;-80
2022/11/16 02:50:22;;;;;;;13.20;8.68;;;12.10;99.90;;;;;;5033248;28;20415;-80
2022/11/16 02:52:48;;;;;;;13.45;8.95;;;10.80;99.90;;;;;;4998790;28;20049;-80
2022/11/16 02:55:14;;;;;;;12.27;8.98;;;10.90;99.90;;;;;;5014533;28;20064;-80
2022/11/16 02:58:00;;;;;;;12.18;9.18;;;10.90;99.90;;;;;;5015423;28;20041;-80
2022/11/16 03:00:42;;;;;;;13.93;9.70;;;10.90;99.90;;;;;;5033837;28;20053;-81
2022/11/16 03:03:15;;;;;;;12.38;9.40;;;10.90;99.90;;;;;;5020925;28;20490;-80
2022/11/16 03:05:48;;;;;;;13.45;9.50;;;12.20;99.90;;;;;;5018372;28;20132;-81
2022/11/16 03:08:28;;;;;;;13.75;9.48;;;10.90;99.90;;;;;;5047598;28;20402;-80
2022/11/16 03:13:49;;;;;;;13.25;9.75;;;10.90;99.90;;;;;;5015933;28;20053;-80
2022/11/16 03:16:20;;;;;;;13.52;9.93;;;11.10;99.90;;;;;;5032527;28;20045;-80
2022/11/16 03:18:48;;;;;;;13.82;9.60;;;11.10;99.90;;;;;;5029932;28;20482;-80
2022/11/16 03:21:21;;;;;;;12.63;9.13;;;11.20;99.90;;;;;;5017162;28;20042;-80
2022/11/16 03:23:46;;;;;;;13.85;9.80;;;10.90;99.90;;;;;;5018129;28;20140;-80
2022/11/16 03:26:17;;;;;;;14.18;9.57;;;10.90;99.90;;;;;;5026606;28;20125;-80
2022/11/16 03:29:01;;;;;;;13.80;9.73;;;11.10;99.90;;;;;;5038371;28;20047;-80
2022/11/16 03:31:31;;;;;;;14.88;10.10;;;10.90;99.90;;;;;;5032899;28;20414;-80
2022/11/16 03:34:03;;;;;;;14.43;9.55;;;10.90;99.90;;;;;;5050862;28;20044;-80
2022/11/16 03:36:34;;;;;;;14.40;9.95;;;10.90;99.90;;;;;;5042448;28;20124;-80
2022/11/16 03:39:21;;;;;;;12.93;9.35;;;11.30;99.90;;;;;;5014777;28;20050;-80
2022/11/16 03:41:48;;;;;;;15.55;10.05;;;10.90;99.90;;;;;;5034008;28;20451;-81
2022/11/16 03:44:17;;;;;;;13.23;9.80;;;10.90;99.90;;;;;;5052382;28;20048;-80
2022/11/16 03:46:44;;;;;;;18.33;10.23;;;10.80;99.90;;;;;;5032335;28;20056;-81
2022/11/16 03:49:10;;;;;;;15.80;10.10;;;10.90;99.90;;;;;;5052118;28;20090;-80
2022/11/16 03:51:36;;;;;;;16.58;10.10;;;12.30;99.90;;;;;;5051265;28;20037;-80
2022/11/16 03:54:02;;;;;;;14.88;9.60;;;10.90;99.90;;;;;;5021403;28;20049;-80
2022/11/16 03:56:28;;;;;;;15.20;9.90;;;10.80;99.90;;;;;;5039139;28;20036;-81
2022/11/16 03:58:53;;;;;;;13.05;9.82;;;10.80;99.90;;;;;;5048256;28;20509;-79
2022/11/16 04:01:19;;;;;;;16.33;10.77;;;11.10;99.90;;;;;;5054038;28;20461;-80
2022/11/16 04:03:45;;;;;;;17.77;10.80;;;10.80;99.90;;;;;;5059244;28;20052;-80
2022/11/16 04:25:46;;;;;;;19.13;11.40;;;10.70;99.90;;;;;;5078889;28;20044;-80
2022/11/16 04:28:13;;;;;;;15.65;10.95;;;11.20;99.90;;;;;;5060478;28;20044;-80
2022/11/16 04:38:53;;;;;;;15.65;11.90;;;11.10;99.90;;;;;;5040586;28;20048;-80
2022/11/16 04:44:03;;;;;;;16.15;12.18;;;11.10;99.90;;;;;;5058271;28;20136;-80
2022/11/16 04:49:13;;;;;;;14.35;11.35;;;10.70;99.90;;;;;;5040463;28;20064;-80
2022/11/16 04:51:38;;;;;;;15.48;11.65;;;10.70;99.90;;;;;;5057144;28;20520;-80
2022/11/16 04:54:04;;;;;;;19.17;13.40;;;11.40;99.90;;;;;;5021621;28;20064;-79
2022/11/16 04:56:29;;;;;;;17.95;12.43;;;10.70;99.90;;;;;;5057697;28;20464;-80
2022/11/16 04:58:55;;;;;;;17.55;12.52;;;11.50;99.90;;;;;;5061949;28;20040;-80
2022/11/16 05:02:06;;;;;;;16.23;12.25;;;10.70;99.90;;;;;;5048722;28;20049;-80
2022/11/16 05:04:06;;;;;;;17.10;12.27;;;10.70;99.90;;;;;;5055840;28;20394;-80
2022/11/16 05:06:32;;;;;;;16.88;12.40;;;11.10;99.90;;;;;;5017397;28;20367;-80
2022/11/16 05:08:57;;;;;;;18.13;12.27;;;12.10;99.90;;;;;;5054101;28;20041;-80
2022/11/16 05:11:23;;;;;;;17.48;13.52;;;10.80;99.90;;;;;;5055239;28;20044;-80
2022/11/16 05:13:49;;;;;;;16.48;12.00;;;10.90;99.90;;;;;;5032377;28;20045;-80
2022/11/16 05:16:14;;;;;;;18.13;13.32;;;11.30;99.90;;;;;;5034889;28;20116;-81
2022/11/16 05:18:40;;;;;;;17.10;12.98;;;10.70;99.90;;;;;;5051750;28;20067;-80
2022/11/16 05:21:05;;;;;;;17.33;13.38;;;10.70;99.90;;;;;;5053675;28;20037;-80
2022/11/16 05:26:15;;;;;;;18.55;13.45;;;11.10;99.90;;;;;;5040196;28;20486;-80
2022/11/16 05:28:41;;;;;;;17.88;13.35;;;10.70;99.90;;;;;;5053138;28;20043;-80
2022/11/16 05:31:06;;;;;;;18.63;13.25;;;12.00;99.90;;;;;;5036897;28;20143;-80
2022/11/16 05:33:32;;;;;;;16.90;13.10;;;10.80;99.90;;;;;;5042159;28;20407;-80
2022/11/16 05:35:57;;;;;;;19.42;13.93;;;11.70;99.90;;;;;;5016586;28;20037;-80
2022/11/16 05:38:23;;;;;;;18.52;13.93;;;11.40;99.90;;;;;;5017811;28;20490;-80
2022/11/16 05:40:49;;;;;;;19.30;14.05;;;12.10;99.90;;;;;;5033702;28;20053;-80
2022/11/16 05:43:14;;;;;;;18.27;14.05;;;10.70;99.90;;;;;;5032803;28;20411;-80
2022/11/16 05:45:41;;;;;;;17.15;13.40;;;11.30;99.90;;;;;;5050860;28;20089;-80
2022/11/16 05:48:06;;;;;;;18.27;13.85;;;12.20;99.90;;;;;;5020235;28;20458;-80
2022/11/16 05:50:32;;;;;;;17.50;13.30;;;10.80;99.90;;;;;;5015053;28;20112;-80
2022/11/16 05:52:57;;;;;;;18.73;13.77;;;11.40;99.90;;;;;;5041305;28;20123;-79
2022/11/16 05:55:23;;;;;;;18.20;14.27;;;12.10;99.90;;;;;;5044452;28;20037;-80
2022/11/16 05:57:49;;;;;;;17.67;13.48;;;10.80;99.90;;;;;;5047292;28;20409;-80
2022/11/16 06:00:15;;;;;;;19.05;13.30;;;11.30;99.90;;;;;;5052084;28;20049;-80
2022/11/16 06:02:41;;;;;;;20.08;14.98;;;10.70;99.90;;;;;;5021010;28;20073;-80
2022/11/16 06:05:07;;;;;;;19.80;14.15;;;10.80;99.90;;;;;;5032696;28;20083;-80
2022/11/16 06:07:33;;;;;;;18.10;14.13;;;10.70;99.90;;;;;;5024997;28;20033;-80
2022/11/16 06:09:58;;;;;;;16.45;13.60;;;10.80;99.90;;;;;;5053841;28;20072;-80
2022/11/16 06:12:24;;;;;;;16.95;13.80;;;10.70;99.90;;;;;;5003911;28;20088;-80
2022/11/16 06:14:49;;;;;;;19.33;15.02;;;10.70;99.90;;;;;;5016405;28;20508;-80
2022/11/16 06:17:15;;;;;;;19.23;14.75;;;10.70;99.90;;;;;;5033609;28;20038;-80
2022/11/16 06:19:41;;;;;;;20.40;14.93;;;10.70;99.90;;;;;;5016305;28;20073;-79
2022/11/16 06:22:06;;;;;;;20.33;15.15;;;11.60;99.90;;;;;;5036943;28;20135;-80
2022/11/16 06:24:35;;;;;;;21.02;14.77;;;10.80;99.90;;;;;;5016247;28;20052;-79
2022/11/16 06:27:01;;;;;;;19.80;14.05;;;10.80;99.90;;;;;;5033365;28;20041;-81
2022/11/16 06:29:26;;;;;;;20.50;14.25;;;10.80;99.90;;;;;;5033748;28;20080;-80
2022/11/16 06:31:52;;;;;;;19.55;14.48;;;11.70;99.90;;;;;;5033596;28;20517;-80
2022/11/16 06:34:17;;;;;;;18.05;14.05;;;10.80;99.90;;;;;;5015736;28;20045;-80
2022/11/16 06:36:43;;;;;;;18.25;14.85;;;11.80;99.90;;;;;;5017161;28;20121;-80
2022/11/16 06:39:10;;;;;;;18.77;15.00;;;10.80;99.90;;;;;;5037365;28;20037;-80
2022/11/16 06:41:36;;;;;;;21.58;15.50;;;10.80;99.90;;;;;;5049192;28;20041;-80
2022/11/16 06:44:01;;;;;;;19.02;14.45;;;12.00;99.90;;;;;;5052842;28;20059;-80
2022/11/16 06:46:27;;;;;;;18.02;14.13;;;11.10;99.90;;;;;;5034059;28;20098;-80
2022/11/16 06:48:53;;;;;;;19.30;14.27;;;10.80;99.90;;;;;;5051314;28;20049;-79
2022/11/16 06:51:18;;;;;;;18.27;13.45;;;11.80;99.90;;;;;;5052756;28;20450;-80
2022/11/16 06:53:44;;;;;;;18.13;13.98;;;12.10;99.90;;;;;;5005762;28;20088;-80
2022/11/16 06:56:12;;;;;;;17.23;12.80;;;10.90;99.90;;;;;;5050366;28;20124;-80
2022/11/16 06:58:37;;;;;;;16.50;13.68;;;12.00;99.90;;;;;;5040034;28;20132;-80
2022/11/16 07:01:08;;;;;;;18.80;12.98;;;11.00;99.90;;;;;;5015518;28;20123;-80
2022/11/16 07:03:34;;;;;;;14.68;12.13;;;11.00;99.90;;;;;;5037777;28;20041;-80
2022/11/16 07:06:08;;;;;;;16.73;12.60;;;11.00;99.90;;;;;;5055729;28;20074;-81
2022/11/16 07:08:34;;;;;;;16.92;13.20;;;11.00;99.90;;;;;;5072490;28;20060;-81
2022/11/16 07:11:04;;;;;;;14.80;12.05;;;11.80;99.90;;;;;;5072676;28;20044;-81
2022/11/16 07:13:31;;;;;;;19.05;12.55;;;11.00;99.90;;;;;;5072124;28;20430;-80
2022/11/16 07:16:10;;;;;;;14.15;11.07;;;11.00;99.90;;;;;;5070816;28;20048;-80
2022/11/16 07:18:38;;;;;;;15.02;11.82;;;11.90;99.90;;;;;;5052404;28;20534;-80
2022/11/16 07:21:12;;;;;;;15.20;12.77;;;11.00;99.90;;;;;;5042122;28;20051;-81
2022/11/16 07:23:39;;;;;;;14.02;11.70;;;11.70;99.90;;;;;;5041465;28;20048;-80
2022/11/16 07:26:06;;;;;;;17.10;12.70;;;11.00;99.90;;;;;;5072173;28;20080;-80
2022/11/16 07:28:34;;;;;;;15.50;12.52;;;11.00;99.90;;;;;;5062256;28;20052;-81
2022/11/16 07:31:02;;;;;;;16.58;12.60;;;11.00;99.90;;;;;;5051317;28;20048;-80
2022/11/16 07:33:28;;;;;;;17.23;13.88;;;11.00;99.90;;;;;;5034227;28;20053;-80
2022/11/16 07:35:53;;;;;;;15.55;12.75;;;11.00;99.90;;;;;;5033675;28;20043;-80
2022/11/16 07:38:19;;;;;;;15.07;11.77;;;11.00;99.90;;;;;;5052861;28;20037;-81
2022/11/16 07:40:45;;;;;;;16.40;11.93;;;11.80;99.90;;;;;;5061178;28;20400;-80
2022/11/16 07:43:12;;;;;;;14.57;11.20;;;11.20;99.90;;;;;;5052406;28;20103;-81
2022/11/16 07:45:38;;;;;;;15.25;11.23;;;12.20;99.90;;;;;;5052274;28;20205;-80
2022/11/16 07:48:03;;;;;;;13.95;11.07;;;11.00;99.90;;;;;;5053172;28;20048;-80
2022/11/16 07:50:29;;;;;;;14.23;11.40;;;11.00;99.90;;;;;;5051652;28;20049;-80
2022/11/16 07:52:55;;;;;;;13.63;10.98;;;11.10;99.90;;;;;;5034390;28;20041;-80
2022/11/16 07:55:23;;;;;;;14.30;10.38;;;11.10;99.90;;;;;;5057442;28;20110;-80
2022/11/16 07:57:49;;;;;;;13.55;10.40;;;11.10;99.90;;;;;;5071976;28;20048;-80
2022/11/16 08:00:15;;;;;;;12.57;9.73;;;12.20;99.90;;;;;;5042447;28;20053;-80
2022/11/16 08:02:41;;;;;;;12.98;10.02;;;10.90;99.90;;;;;;5051098;28;20118;-80
2022/11/16 08:05:07;;;;;;;14.30;10.55;;;11.90;99.90;;;;;;5034227;28;20044;-80
2022/11/16 08:07:34;;;;;;;14.52;11.23;;;11.10;99.90;;;;;;5017428;28;20048;-80
2022/11/16 08:10:00;;;;;;;14.52;11.80;;;11.50;99.90;;;;;;5033978;28;20413;-80
2022/11/16 08:12:25;;;;;;;13.30;11.02;;;11.90;99.90;;;;;;5051619;28;20044;-80
2022/11/16 08:14:51;;;;;;;17.45;12.50;;;12.10;99.90;;;;;;5051990;28;20041;-80
2022/11/16 08:17:17;;;;;;;13.20;10.93;;;11.10;99.90;;;;;;5051950;28;20040;-81
2022/11/16 08:19:42;;;;;;;15.57;12.23;;;12.20;99.90;;;;;;5034165;28;20512;-80
2022/11/16 08:22:08;;;;;;;17.17;11.77;;;11.00;99.90;;;;;;5034711;28;20470;-80
2022/11/16 08:24:34;;;;;;;16.38;12.50;;;11.00;99.90;;;;;;5015116;28;20048;-80
2022/11/16 08:27:00;;;;;;;16.25;12.02;;;11.00;99.90;;;;;;5032582;28;20067;-80
2022/11/16 08:29:26;;;;;;;15.93;12.73;;;12.00;99.90;;;;;;5017400;28;20049;-80
2022/11/16 08:31:51;;;;;;;18.02;12.77;;;11.00;99.90;;;;;;5052315;28;20075;-80
2022/11/16 08:34:17;;;;;;;18.67;13.13;;;11.50;99.90;;;;;;5051868;28;20045;-80
2022/11/16 08:36:43;;;;;;;15.95;13.05;;;11.00;99.90;;;;;;5033431;28;20118;-80
2022/11/16 08:39:08;;;;;;;17.25;13.02;;;11.30;99.90;;;;;;5039224;28;20112;-84
2022/11/16 08:41:36;;;;;;;25.45;12.77;;;11.00;99.90;;;;;;5068416;28;20044;-82
2022/11/16 08:44:02;;;;;;;17.88;13.48;;;11.00;99.90;;;;;;5064896;28;20051;-83
2022/11/16 08:46:29;;;;;;;17.80;13.68;;;11.00;99.90;;;;;;5039282;28;20048;-84
2022/11/16 08:48:57;;;;;;;17.33;13.30;;;11.00;99.90;;;;;;5045051;28;20072;-83
2022/11/16 08:51:23;;;;;;;18.63;13.70;;;11.00;99.90;;;;;;5033621;28;20037;-83
2022/11/16 08:53:57;;;;;;;17.25;13.35;;;11.70;99.90;;;;;;5062770;28;20054;-83
2022/11/16 08:56:25;;;;;;;17.67;12.98;;;11.00;99.90;;;;;;5039901;28;20134;-81
2022/11/16 08:58:52;;;;;;;17.65;12.63;;;11.00;99.90;;;;;;5075162;28;20044;-80
2022/11/16 09:01:20;;;;;;;15.45;11.85;;;11.00;99.90;;;;;;5043556;28;20164;-80
2022/11/16 09:03:46;;;;;;;17.50;13.10;;;11.00;99.90;;;;;;5000638;28;20049;-80
2022/11/16 09:06:13;;;;;;;15.68;12.57;;;11.90;99.90;;;;;;5034867;28;20060;-80
2022/11/16 09:08:41;;;;;;;15.70;12.10;;;11.50;99.90;;;;;;5045393;28;20138;-80
2022/11/16 09:11:08;;;;;;;16.05;11.93;;;11.10;99.90;;;;;;5038950;28;20343;-78
2022/11/16 09:13:34;;;;;;;15.88;11.73;;;11.10;99.90;;;;;;5054742;28;20037;-80
2022/11/16 09:16:00;;;;;;;14.50;11.55;;;11.50;99.90;;;;;;5037839;28;20514;-80
2022/11/16 09:18:27;;;;;;;16.25;12.55;;;11.90;99.90;;;;;;5016929;28;20557;-80
2022/11/16 09:20:53;;;;;;;14.73;12.27;;;12.30;99.90;;;;;;5034755;28;20359;-80
2022/11/16 09:23:19;;;;;;;14.52;12.00;;;12.10;99.90;;;;;;5034450;28;20041;-80
2022/11/16 09:25:47;;;;;;;13.43;11.52;;;11.40;99.90;;;;;;5045626;28;20080;-80
2022/11/16 09:28:16;;;;;;;16.13;11.60;;;12.40;99.90;;;;;;5014509;28;20048;-80
2022/11/16 09:30:44;;;;;;;14.80;12.10;;;11.20;99.90;;;;;;5037881;28;20041;-81
2022/11/16 09:33:11;;;;;;;15.52;12.05;;;11.30;99.90;;;;;;5011483;28;20048;-81
2022/11/16 09:35:36;;;;;;;15.32;11.93;;;11.70;99.90;;;;;;5017459;28;20053;-80
2022/11/16 09:38:02;;;;;;;15.20;12.15;;;11.30;99.90;;;;;;5016451;28;20129;-80
2022/11/16 09:40:35;;;;;;;16.45;13.02;;;11.30;99.90;;;;;;5016067;28;20080;-80
2022/11/16 09:43:21;;;;;;;14.75;11.65;;;11.40;99.90;;;;;;5015991;28;20051;-81
2022/11/16 09:46:20;;;;;;;15.15;11.23;;;11.70;99.90;;;;;;4998804;28;20053;-80
2022/11/16 09:48:47;;;;;;;19.77;12.80;;;11.40;99.90;;;;;;5016462;28;20089;-80
2022/11/16 09:51:15;;;;;;;13.98;11.18;;;11.40;99.90;;;;;;5033735;28;20124;-80
2022/11/16 09:53:58;;;;;;;15.02;11.85;;;11.40;99.90;;;;;;5032643;28;20045;-80
2022/11/16 09:56:26;;;;;;;12.80;11.00;;;11.40;99.90;;;;;;5015030;28;20045;-80
2022/11/16 09:59:07;;;;;;;15.45;10.95;;;11.50;99.90;;;;;;5026744;28;20049;-81
2022/11/16 10:01:43;;;;;;;13.65;11.00;;;11.50;99.90;;;;;;5029193;28;20141;-80
2022/11/16 10:04:21;;;;;;;12.93;10.23;;;11.50;99.90;;;;;;5048292;28;20102;-80
2022/11/16 10:07:14;;;;;;;12.32;10.65;;;11.70;99.90;;;;;;5052688;28;20464;-80
2022/11/16 10:09:40;;;;;;;11.80;10.52;;;11.70;99.90;;;;;;5052357;28;20052;-80
2022/11/16 10:12:30;;;;;;;13.18;10.90;;;11.70;99.90;;;;;;5052164;28;20041;-80
2022/11/16 10:15:17;;;;;;;12.40;10.05;;;11.80;99.90;;;;;;5052272;28;20078;-80
2022/11/16 10:17:53;;;;;;;13.43;10.02;;;11.80;99.90;;;;;;5035756;28;20041;-80
2022/11/16 10:20:56;;;;;;;12.32;10.43;;;11.80;99.90;;;;;;5052200;28;20155;-80
2022/11/16 10:23:52;;;;;;;10.60;9.38;;;11.90;99.90;;;;;;5053152;28;20048;-80
2022/11/16 10:26:46;;;;;;;11.43;9.87;;;11.90;99.90;;;;;;5052781;28;20137;-81
2022/11/16 10:29:49;;;;;;;12.27;10.35;;;11.90;99.90;;;;;;5052366;28;20126;-81
2022/11/16 10:32:28;;;;;;;10.45;9.07;;;12.00;99.90;;;;;;5052190;28;20371;-79
2022/11/16 10:35:09;;;;;;;11.90;9.48;;;12.00;99.90;;;;;;5051939;28;20481;-79
2022/11/16 10:37:43;;;;;;;13.20;9.90;;;12.00;99.90;;;;;;5037513;28;20410;-79
2022/11/16 10:40:29;;;;;;;12.07;9.80;;;12.20;99.90;;;;;;5031787;28;20042;-79
2022/11/16 10:43:09;;;;;;;14.93;10.50;;;12.20;99.90;;;;;;5031383;28;20041;-79
2022/11/16 10:45:59;;;;;;;14.45;9.63;;;12.10;99.90;;;;;;5032986;28;20045;-80
2022/11/16 10:48:30;;;;;;;11.82;9.55;;;12.50;99.90;;;;;;5032226;28;20525;-81
2022/11/16 10:50:56;;;;;;;15.68;10.68;;;12.40;99.90;;;;;;5032946;28;20057;-80
2022/11/16 10:53:27;;;;;;;15.73;10.02;;;;;;;;;;5032740;28;20038;-80
2022/11/16 10:56:01;;;;;;;11.80;9.40;;;;;;;;;;5031685;28;20135;-80
2022/11/16 10:58:47;;;;;;;12.35;9.02;;;;;;;;;;5033271;28;20045;-80
2022/11/16 11:01:13;;;;;;;12.90;8.90;;;;;;;;;;5032491;28;20133;-81
2022/11/16 11:03:39;;;;;;;12.75;8.52;;;;;;;;;;5014419;28;20538;-80
2022/11/16 11:06:12;;;;;;;14.05;8.48;;;;;;;;;;4997855;28;20305;-81
2022/11/16 11:08:38;;;;;;;10.68;7.85;;;;;;;;;;5014865;28;20067;-81
2022/11/16 11:14:03;;;;;;;10.73;7.80;;;;;;;;;;5031730;28;20045;-82
2022/11/16 11:16:29;;;;;;;13.48;7.88;;;;;;;;;;5018619;28;20059;-83
2022/11/16 11:18:55;;;;;;;9.88;7.00;;;;;;;;;;5017572;28;20049;-81
2022/11/16 11:21:23;;;;;;;11.00;7.43;;;;;;;;;;5014915;28;20398;-81
2022/11/16 11:23:51;;;;;;;14.52;7.78;;;;;;;;;;5039141;28;20367;-82
2022/11/16 11:26:26;;;;;;;11.02;7.25;;;;;;;;;;5023994;28;20053;-83
2022/11/16 11:28:53;;;;;;;11.57;7.53;;;;;;;;;;5022740;28;20410;-83
2022/11/16 11:31:24;;;;;;;9.98;7.13;;;;;;;;;;5029162;28;20162;-82
2022/11/16 11:33:59;;;;;;;11.23;7.47;;;;;;;;;;5038588;28;20171;-84
2022/11/16 11:36:26;;;;;;;10.88;7.45;;;;;;;;;;5052160;28;20051;-82
2022/11/16 11:39:03;;;;;;;9.15;6.50;;;;;;;;;;5034468;28;20041;-83
2022/11/16 11:41:39;;;;;;;11.70;6.32;;;;;;;;;;5039023;28;20483;-82
2022/11/16 11:44:18;;;;;;;10.18;6.28;;;;;;;;;;5007344;28;20374;-82
2022/11/16 11:46:50;;;;;;;9.13;5.85;;;;;;;;;;5007941;28;20047;-81
2022/11/16 11:49:20;;;;;;;12.80;5.97;;;;;;;;;;5030170;28;20098;-82
2022/11/16 11:51:47;;;;;;;14.43;6.03;;;;;;;;;;5048383;28;20041;-82
2022/11/16 11:54:21;;;;;;;10.00;6.20;;;;;;;;;;5041245;28;20132;-82
2022/11/16 11:56:47;;;;;;;11.38;6.50;;;;;;;;;;5036969;28;20123;-82
2022/11/16 11:59:17;;;;;;;10.88;6.40;;;;;;;;;;5032231;28;20049;-82
2022/11/16 12:01:58;;;;;;;9.57;5.35;;;;;;;;;;5037155;28;20128;-82
2022/11/16 12:04:43;;;;;;;10.50;6.57;;;;;;;;;;5034343;28;20049;-83
2022/11/16 12:07:12;;;;;;;10.30;6.68;;;;;;;;;;5017555;28;20112;-82
2022/11/16 12:09:45;;;;;;;9.57;6.25;;;;;;;;;;5035583;28;20044;-81
2022/11/16 12:12:11;;;;;;;9.02;5.15;;;;;;;;;;5040394;28;20043;-82
2022/11/16 12:14:40;;;;;;;9.30;5.28;;;;;;;;;;5049583;28;20033;-81
2022/11/16 12:17:14;;;;;;;8.15;4.60;;;;;;;;;;5053995;28;20037;-75
2022/11/16 12:20:06;;;;;;;7.78;4.47;;;;;;;;;;5052106;28;20444;-75
2022/11/16 12:22:38;;;;;;;8.35;4.43;;;;;;;;;;4997828;28;20058;-75
2022/11/16 12:25:17;;;;;;;8.00;4.30;;;;;;;;;;5053776;28;20048;-76
2022/11/16 12:27:53;;;;;;;8.00;3.90;;;;;;;;;;5034853;28;20049;-75
2022/11/16 12:30:23;;;;;;;8.40;3.63;;;;;;;;;;5016912;28;20110;-76
2022/11/16 12:32:55;;;;;;;7.15;3.50;;;;;;;;;;5034718;28;20045;-75
2022/11/16 12:35:27;;;;;;;6.25;2.75;;;;;;;;;;5052374;28;20053;-76
2022/11/16 12:38:05;;;;;;;6.85;2.45;;;12.50;99.90;;;;;;5050995;28;20051;-76
2022/11/16 12:40:40;;;;;;;7.65;2.90;;;;;;;;;;5032886;28;20083;-75
2022/11/16 12:43:09;;;;;;;5.55;3.00;;;;;;;;;;5052400;28;20048;-75
2022/11/16 12:45:44;;;;;;;8.43;2.88;;;;;;;;;;5052437;28;20060;-75
2022/11/16 12:48:22;;;;;;;10.98;3.33;;;;;;;;;;5052104;28;20470;-75
2022/11/16 12:51:03;;;;;;;7.90;3.08;;;;;;;;;;5052182;28;20045;-75
2022/11/16 12:53:47;;;;;;;11.55;3.20;;;19.20;99.90;;;;;;5045638;28;20040;-81
2022/11/16 12:56:45;;;;;;;9.27;3.00;;;17.80;99.90;;;;;;5042318;28;20466;-80
2022/11/16 12:59:31;;;;;;;8.82;3.22;;;;;;;;;;5061026;28;20087;-81
2022/11/16 13:02:07;;;;;;;7.38;2.60;;;;;;;;;;5057429;28;20041;-81
2022/11/16 13:04:33;;;;;;;;;;;;;;;;;;5039575;28;20144;-82
2022/11/16 13:06:59;;;;;;;;;;;;;;;;;;5038131;28;20015;-82
2022/11/16 13:09:27;;;;;;;8.40;2.70;;;;;;;;;;5020744;28;19920;-82
2022/11/16 13:12:00;;;;;;;6.22;2.50;;;;;;;;;;5054839;28;20088;-82
2022/11/16 13:14:33;;;;;;;11.07;2.58;;;;;;;;;;5036786;28;20075;-81
2022/11/16 13:17:00;;;;;;;7.22;2.30;;;;;;;;;;5036486;28;20045;-82
2022/11/16 13:19:27;;;;;;;6.80;2.50;;;;;;;;;;5055776;28;20421;-82
2022/11/16 13:21:58;;;;;;;8.45;2.65;;;;;;;;;;5036909;28;20052;-81
2022/11/16 13:24:43;;;;;;;9.80;2.53;;;;;;;;;;5037350;28;20045;-82
2022/11/16 13:27:24;;;;;;;6.10;2.40;;;;;;;;;;5035946;28;20041;-81
2022/11/16 13:29:54;;;;;;;9.30;2.60;;;;;;;;;;5036930;28;20481;-81
2022/11/16 13:32:20;;;;;;;7.57;2.50;;;;;;;;;;5036826;28;20037;-82
2022/11/16 13:34:47;;;;;;;11.10;2.63;;;;;;;;;;5036661;28;20135;-81
2022/11/16 13:37:32;;;;;;;11.05;2.72;;;;;;;;;;5049700;28;20050;-82
2022/11/16 13:39:58;;;;;;;8.98;2.40;;;;;;;;;;5073764;28;20080;-82
2022/11/16 13:42:24;;;;;;;7.47;2.30;;;;;;;;;;5055484;28;20079;-81
2022/11/16 13:44:50;;;;;;;11.00;2.83;;;;;;;;;;5056498;28;20365;-82
2022/11/16 13:47:22;;;;;;;7.70;2.58;;;;;;;;;;5056248;28;20040;-82
2022/11/16 13:49:53;;;;;;;10.13;2.20;;;;;;;;;;5055676;28;20056;-82
2022/11/16 13:52:19;;;;;;;8.98;2.30;;;;;;;;;;5067466;28;20040;-82
2022/11/16 13:54:47;;;;;;;7.47;2.63;;;;;;;;;;5023540;28;20048;-82